createdAt,value
2023-09-25T00:00:36.370Z,11.70
2023-09-25T00:03:06.339Z,11.70
2023-09-25T00:05:35.478Z,11.70
2023-09-25T00:08:04.556Z,11.70
2023-09-25T00:10:34.039Z,11.70
2023-09-25T00:13:03.038Z,11.60
2023-09-25T00:15:32.000Z,11.60
2023-09-25T00:18:00.429Z,11.60
2023-09-25T00:20:29.419Z,11.60
2023-09-25T00:22:58.042Z,11.50
2023-09-25T00:25:29.376Z,11.50
2023-09-25T00:27:59.176Z,11.50
2023-09-25T00:30:27.862Z,11.50
2023-09-25T00:32:56.376Z,11.40
2023-09-25T00:35:24.796Z,11.40
2023-09-25T00:37:52.993Z,11.40
2023-09-25T00:40:25.646Z,11.40
2023-09-25T00:42:56.597Z,11.40
2023-09-25T00:45:26.339Z,11.40
2023-09-25T00:47:55.431Z,11.40
2023-09-25T00:50:30.583Z,11.30
2023-09-25T00:53:02.530Z,11.40
2023-09-25T00:55:30.693Z,11.40
2023-09-25T00:58:01.137Z,11.40
2023-09-25T01:00:30.666Z,11.30
2023-09-25T01:02:58.968Z,11.30
2023-09-25T01:05:27.953Z,11.30
2023-09-25T01:07:56.112Z,11.20
2023-09-25T01:10:24.275Z,11.20
2023-09-25T01:12:54.248Z,11.20
2023-09-25T01:15:23.664Z,11.20
2023-09-25T01:17:53.636Z,11.20
2023-09-25T01:20:23.684Z,11.20
2023-09-25T01:22:54.454Z,11.10
2023-09-25T01:25:24.278Z,11.10
2023-09-25T01:27:52.947Z,11.20
2023-09-25T01:30:21.951Z,11.10
2023-09-25T01:32:53.017Z,11.10
2023-09-25T01:35:26.181Z,11.10
2023-09-25T01:38:00.944Z,11.00
2023-09-25T01:40:30.169Z,11.00
2023-09-25T01:42:58.613Z,11.00
2023-09-25T01:45:26.868Z,10.90
2023-09-25T01:47:55.637Z,11.10
2023-09-25T01:50:26.020Z,10.90
2023-09-25T01:52:57.020Z,10.80
2023-09-25T01:55:30.078Z,10.80
2023-09-25T01:57:58.190Z,10.80
2023-09-25T02:00:26.759Z,10.80
2023-09-25T02:02:55.148Z,10.80
2023-09-25T02:05:23.532Z,10.80
2023-09-25T02:07:51.829Z,10.80
2023-09-25T02:10:20.345Z,10.80
2023-09-25T02:12:49.938Z,10.80
2023-09-25T02:15:18.549Z,10.80
2023-09-25T02:17:46.751Z,10.80
2023-09-25T02:20:18.284Z,10.80
2023-09-25T02:22:47.969Z,10.90
2023-09-25T02:25:16.767Z,10.80
2023-09-25T02:27:45.292Z,10.80
2023-09-25T02:30:15.951Z,10.80
2023-09-25T02:32:44.718Z,10.80
2023-09-25T02:35:13.889Z,10.80
2023-09-25T02:37:43.349Z,10.70
2023-09-25T02:40:14.502Z,10.70
2023-09-25T02:42:43.195Z,10.70
2023-09-25T02:45:12.590Z,10.70
2023-09-25T02:47:42.203Z,10.70
2023-09-25T02:50:11.505Z,10.70
2023-09-25T02:52:39.674Z,10.70
2023-09-25T02:55:08.974Z,10.70
2023-09-25T02:57:37.254Z,10.70
2023-09-25T03:00:10.249Z,10.70
2023-09-25T03:02:38.483Z,10.60
2023-09-25T03:05:09.080Z,10.60
2023-09-25T03:07:37.235Z,10.50
2023-09-25T03:10:06.370Z,10.50
2023-09-25T03:12:34.605Z,10.50
2023-09-25T03:15:02.756Z,10.50
2023-09-25T03:17:30.942Z,10.50
2023-09-25T03:19:59.138Z,10.50
2023-09-25T03:22:28.641Z,10.50
2023-09-25T03:24:58.219Z,10.50
2023-09-25T03:27:26.422Z,10.40
2023-09-25T03:29:54.812Z,10.40
2023-09-25T03:32:22.906Z,10.40
2023-09-25T03:34:51.075Z,10.40
2023-09-25T03:37:21.376Z,10.30
2023-09-25T03:39:51.181Z,10.30
2023-09-25T03:42:19.358Z,10.20
2023-09-25T03:44:48.308Z,10.10
2023-09-25T03:47:16.423Z,10.20
2023-09-25T03:49:45.173Z,10.30
2023-09-25T03:52:13.602Z,10.30
2023-09-25T03:54:41.801Z,10.20
2023-09-25T03:57:11.337Z,10.10
2023-09-25T03:59:39.690Z,10.00
2023-09-25T04:02:07.840Z,10.10
2023-09-25T04:04:36.093Z,10.10
2023-09-25T04:07:04.876Z,10.00
2023-09-25T04:09:34.106Z,10.00
2023-09-25T04:12:02.308Z,10.00
2023-09-25T04:14:33.576Z,10.10
2023-09-25T04:17:02.901Z,10.10
2023-09-25T04:19:32.006Z,10.10
2023-09-25T04:22:00.627Z,10.10
2023-09-25T04:24:29.011Z,10.10
2023-09-25T04:26:57.142Z,10.10
2023-09-25T04:29:25.283Z,10.00
2023-09-25T04:31:54.831Z,10.00
2023-09-25T04:34:23.040Z,9.90
2023-09-25T04:36:52.534Z,9.90
2023-09-25T04:39:21.472Z,9.90
2023-09-25T04:41:49.883Z,9.90
2023-09-25T04:44:19.296Z,9.90
2023-09-25T04:46:47.912Z,10.00
2023-09-25T04:49:19.086Z,10.00
2023-09-25T04:51:49.847Z,9.90
2023-09-25T04:54:18.893Z,9.90
2023-09-25T04:56:47.573Z,9.90
2023-09-25T04:59:15.942Z,9.90
2023-09-25T05:01:44.187Z,9.90
2023-09-25T05:04:12.447Z,10.00
2023-09-25T05:06:41.992Z,10.00
2023-09-25T05:09:12.607Z,10.00
2023-09-25T05:11:40.833Z,9.90
2023-09-25T05:14:09.015Z,9.90
2023-09-25T05:16:37.203Z,9.90
2023-09-25T05:19:05.447Z,10.00
2023-09-25T05:21:33.692Z,10.00
2023-09-25T05:24:03.200Z,9.90
2023-09-25T05:26:31.359Z,9.90
2023-09-25T05:29:01.139Z,10.00
2023-09-25T05:31:30.417Z,10.00
2023-09-25T05:33:58.630Z,10.10
2023-09-25T05:36:26.841Z,10.10
2023-09-25T05:38:56.578Z,10.00
2023-09-25T05:41:26.252Z,10.20
2023-09-25T05:43:54.965Z,10.20
2023-09-25T05:46:23.142Z,10.20
2023-09-25T05:48:51.368Z,10.20
2023-09-25T05:51:19.885Z,10.20
2023-09-25T05:53:48.917Z,10.30
2023-09-25T05:56:17.570Z,10.30
2023-09-25T05:58:47.820Z,10.50
2023-09-25T06:01:16.267Z,10.50
2023-09-25T06:03:44.953Z,10.60
2023-09-25T06:06:13.259Z,10.60
2023-09-25T06:08:41.441Z,10.70
2023-09-25T06:11:09.831Z,10.70
2023-09-25T06:13:38.001Z,10.80
2023-09-25T06:16:07.616Z,10.80
2023-09-25T06:18:35.791Z,11.00
2023-09-25T06:21:04.217Z,11.00
2023-09-25T06:23:32.682Z,11.10
2023-09-25T06:26:02.727Z,11.20
2023-09-25T06:28:31.129Z,11.20
2023-09-25T06:30:59.326Z,11.30
2023-09-25T06:33:29.983Z,11.40
2023-09-25T06:35:58.661Z,11.50
2023-09-25T06:38:26.849Z,11.60
2023-09-25T06:40:54.981Z,11.70
2023-09-25T06:43:23.149Z,11.80
2023-09-25T06:45:51.328Z,11.80
2023-09-25T06:48:19.830Z,11.90
2023-09-25T06:50:49.381Z,11.90
2023-09-25T06:53:17.516Z,12.20
2023-09-25T06:55:45.999Z,12.20
2023-09-25T06:58:14.194Z,12.30
2023-09-25T07:00:54.578Z,12.40
2023-09-25T07:03:25.867Z,12.50
2023-09-25T07:05:55.707Z,12.60
2023-09-25T07:08:24.755Z,12.70
2023-09-25T07:10:53.258Z,12.70
2023-09-25T07:13:22.542Z,12.80
2023-09-25T07:15:50.749Z,12.80
2023-09-25T07:18:19.367Z,12.90
2023-09-25T07:20:56.684Z,12.90
2023-09-25T07:23:24.889Z,13.10
2023-09-25T07:26:02.815Z,13.10
2023-09-25T07:28:30.992Z,13.20
2023-09-25T07:31:00.874Z,13.30
2023-09-25T07:33:30.307Z,13.30
2023-09-25T07:36:02.903Z,13.40
2023-09-25T07:38:34.070Z,13.50
2023-09-25T07:41:03.190Z,13.60
2023-09-25T07:43:46.452Z,13.60
2023-09-25T07:46:22.197Z,13.70
2023-09-25T07:48:50.813Z,13.80
2023-09-25T07:51:20.504Z,13.90
2023-09-25T07:53:48.685Z,13.90
2023-09-25T07:56:17.001Z,14.10
2023-09-25T07:58:45.553Z,14.20
2023-09-25T08:01:15.320Z,14.30
2023-09-25T08:03:44.662Z,14.40
2023-09-25T08:06:13.565Z,14.50
2023-09-25T08:08:43.089Z,14.60
2023-09-25T08:11:11.263Z,14.70
2023-09-25T08:13:39.375Z,14.80
2023-09-25T08:16:08.534Z,14.90
2023-09-25T08:18:37.642Z,15.00
2023-09-25T08:21:06.651Z,15.10
2023-09-25T08:23:34.816Z,15.20
2023-09-25T08:26:06.553Z,15.30
2023-09-25T08:28:37.363Z,15.40
2023-09-25T08:31:05.673Z,15.50
2023-09-25T08:33:33.881Z,15.50
2023-09-25T08:36:02.139Z,15.60
2023-09-25T08:38:30.651Z,15.70
2023-09-25T08:40:59.342Z,15.80
2023-09-25T08:43:30.662Z,15.90
2023-09-25T08:46:00.032Z,16.00
2023-09-25T08:48:28.303Z,16.10
2023-09-25T08:50:56.864Z,16.20
2023-09-25T08:53:25.131Z,16.30
2023-09-25T08:55:53.658Z,16.40
2023-09-25T08:58:22.881Z,16.50
2023-09-25T09:00:54.777Z,16.60
2023-09-25T09:03:23.346Z,16.60
2023-09-25T09:05:51.599Z,16.70
2023-09-25T09:08:19.788Z,16.80
2023-09-25T09:10:47.980Z,16.90
2023-09-25T09:13:17.728Z,17.00
2023-09-25T09:15:46.093Z,17.10
2023-09-25T09:18:26.944Z,17.10
2023-09-25T09:20:57.285Z,17.30
2023-09-25T09:23:41.879Z,17.40
2023-09-25T09:26:13.512Z,17.50
2023-09-25T09:28:44.129Z,17.50
2023-09-25T09:31:12.865Z,17.60
2023-09-25T09:33:43.478Z,17.70
2023-09-25T09:36:12.344Z,17.80
2023-09-25T09:38:41.774Z,17.80
2023-09-25T09:41:10.751Z,17.90
2023-09-25T09:43:39.835Z,18.00
2023-09-25T09:46:12.385Z,18.10
2023-09-25T09:48:45.773Z,18.10
2023-09-25T09:51:18.362Z,18.20
2023-09-25T09:53:47.530Z,18.20
2023-09-25T09:56:17.441Z,18.20
2023-09-25T09:58:48.546Z,18.30
2023-09-25T10:01:18.204Z,18.30
2023-09-25T10:03:48.991Z,18.30
2023-09-25T10:06:17.369Z,18.40
2023-09-25T10:09:09.863Z,18.40
2023-09-25T10:11:38.345Z,18.40
2023-09-25T10:14:09.448Z,18.40
2023-09-25T10:17:00.166Z,18.40
2023-09-25T10:19:50.565Z,18.60
2023-09-25T10:22:22.073Z,18.60
2023-09-25T10:25:01.462Z,18.70
2023-09-25T10:27:33.009Z,18.70
2023-09-25T10:30:12.707Z,18.80
2023-09-25T10:32:43.468Z,18.80
2023-09-25T10:35:48.875Z,18.90
2023-09-25T10:40:53.172Z,19.10
2023-09-25T10:43:24.366Z,19.20
2023-09-25T10:45:55.356Z,19.20
2023-09-25T10:48:24.769Z,19.30
2023-09-25T10:50:54.568Z,19.30
2023-09-25T10:53:24.606Z,19.40
2023-09-25T10:55:52.800Z,19.40
2023-09-25T10:58:22.585Z,19.60
2023-09-25T11:00:52.004Z,19.50
2023-09-25T11:03:21.805Z,19.50
2023-09-25T11:05:50.743Z,19.40
2023-09-25T11:08:22.310Z,19.50
2023-09-25T11:10:50.920Z,19.50
2023-09-25T11:13:19.419Z,19.40
2023-09-25T11:15:48.295Z,19.50
2023-09-25T11:18:21.183Z,19.60
2023-09-25T11:20:49.709Z,19.60
2023-09-25T11:23:22.494Z,19.60
2023-09-25T11:25:54.909Z,19.70
2023-09-25T11:28:27.973Z,19.80
2023-09-25T11:30:56.889Z,19.80
2023-09-25T11:33:26.064Z,19.80
2023-09-25T11:35:55.869Z,19.90
2023-09-25T11:38:29.842Z,19.90
2023-09-25T11:41:02.011Z,19.90
2023-09-25T11:43:30.349Z,19.90
2023-09-25T11:45:58.845Z,19.90
2023-09-25T11:48:27.337Z,20.00
2023-09-25T11:50:57.537Z,20.00
2023-09-25T11:53:27.819Z,20.00
2023-09-25T11:55:56.134Z,20.00
2023-09-25T11:58:24.480Z,20.10
2023-09-25T12:00:52.706Z,20.20
2023-09-25T12:03:20.965Z,20.20
2023-09-25T12:05:50.080Z,20.20
2023-09-25T12:08:19.093Z,20.20
2023-09-25T12:10:48.638Z,20.30
2023-09-25T12:13:17.837Z,20.40
2023-09-25T12:15:46.218Z,20.40
2023-09-25T12:18:14.826Z,20.40
2023-09-25T12:20:44.195Z,20.40
2023-09-25T12:23:12.557Z,20.40
2023-09-25T12:25:40.887Z,20.50
2023-09-25T12:28:10.560Z,20.60
2023-09-25T12:30:39.024Z,20.50
2023-09-25T12:33:08.874Z,20.40
2023-09-25T12:35:37.867Z,20.60
2023-09-25T12:38:07.518Z,21.10
2023-09-25T12:40:35.678Z,21.60
2023-09-25T12:43:04.097Z,21.80
2023-09-25T12:45:33.748Z,21.70
2023-09-25T12:48:01.983Z,21.60
2023-09-25T12:50:31.666Z,21.40
2023-09-25T12:53:02.059Z,21.30
2023-09-25T14:22:43.098Z,21.20
2023-09-25T14:25:13.761Z,21.30
2023-09-25T14:27:41.980Z,21.30
2023-09-25T14:30:13.499Z,21.30
2023-09-25T14:32:41.811Z,21.20
2023-09-25T14:35:11.603Z,20.90
2023-09-25T14:37:41.651Z,20.80
2023-09-25T14:40:13.207Z,20.70
2023-09-25T14:42:47.464Z,20.70
2023-09-25T14:45:17.655Z,20.70
2023-09-25T14:47:46.354Z,20.80
2023-09-25T14:50:14.545Z,20.80
2023-09-25T14:52:42.847Z,20.90
2023-09-25T14:55:11.589Z,20.90
2023-09-25T14:57:42.936Z,20.90
2023-09-25T15:00:13.604Z,20.80
2023-09-25T15:02:41.828Z,20.80
2023-09-25T15:05:10.921Z,20.70
2023-09-25T15:07:39.189Z,20.60
2023-09-25T15:10:09.376Z,20.60
2023-09-25T15:12:38.019Z,20.50
2023-09-25T15:15:09.987Z,20.40
2023-09-25T15:17:38.349Z,20.40
2023-09-25T15:20:09.721Z,20.40
2023-09-25T15:22:38.025Z,20.30
2023-09-25T15:25:07.466Z,20.30
2023-09-25T15:27:35.653Z,20.20
2023-09-25T15:30:03.933Z,20.10
2023-09-25T15:32:33.516Z,20.00
2023-09-25T15:35:01.716Z,19.90
2023-09-25T15:37:33.447Z,19.80
2023-09-25T15:40:01.824Z,19.70
2023-09-25T15:42:30.343Z,19.70
2023-09-25T15:44:58.752Z,19.70
2023-09-25T15:47:26.947Z,19.70
2023-09-25T15:49:56.498Z,19.60
2023-09-25T15:52:24.726Z,19.60
2023-09-25T15:54:52.999Z,19.60
2023-09-25T15:57:21.399Z,19.50
2023-09-25T15:59:49.576Z,19.50
2023-09-25T16:02:17.762Z,19.40
2023-09-25T16:04:46.115Z,19.30
2023-09-25T16:07:15.601Z,19.30
2023-09-25T16:09:43.799Z,19.20
2023-09-25T16:27:07.809Z,18.80
2023-09-25T16:29:36.066Z,18.70
2023-09-25T16:32:04.440Z,18.70
2023-09-25T16:34:32.626Z,18.50
2023-09-25T16:37:00.831Z,18.40
2023-09-25T16:39:32.074Z,18.30
2023-09-25T16:42:04.037Z,18.20
2023-09-25T16:44:32.244Z,18.10
2023-09-25T16:47:01.655Z,18.00
2023-09-25T16:49:29.918Z,17.90
2023-09-25T16:51:58.115Z,17.90
2023-09-25T16:54:26.353Z,17.80
2023-09-25T16:56:54.524Z,17.70
2023-09-25T16:59:24.036Z,17.70
2023-09-25T17:01:52.237Z,17.70
2023-09-25T17:04:20.490Z,17.60
2023-09-25T17:06:48.807Z,17.50
2023-09-25T17:09:17.842Z,17.40
2023-09-25T17:11:46.036Z,17.40
2023-09-25T17:14:14.294Z,17.40
2023-09-25T17:16:43.944Z,17.30
2023-09-25T17:19:12.210Z,17.20
2023-09-25T17:21:40.435Z,17.20
2023-09-25T17:24:09.192Z,17.10
2023-09-25T17:26:37.373Z,17.00
2023-09-25T17:29:05.649Z,17.00
2023-09-25T17:31:33.926Z,17.00
2023-09-25T17:34:03.527Z,16.90
2023-09-25T17:36:31.801Z,16.90
2023-09-25T17:38:59.960Z,16.90
2023-09-25T17:41:28.893Z,16.90
2023-09-25T17:43:57.101Z,16.90
